OICI 
Ilam Airport
Ilam, Iran 
ICAOIATAStatus
OICIIILOperational
LatitudeLongitude
33° 35' 11" N46° 24' 17" E
33.58660146.404800
Local Time (DST+5)UTC (GMT+4)
04-24-2014 11:11 pm04-24-2014 18:41
Sunrise-SunsetLocalUTC
Begin Civil Twilight06:15 am01:45
Sunrise06:41 am02:11
Sunset08:03 pm15:33
End Civil Twilight08:29 pm15:59

Current Weather

METARObservedFlight Conditions

OICI 241800Z 34004KT CAVOK 14/02 Q1018 A3008

Thu, Apr 24, 2014 @ 18:00 UTC(Z)

(41 Minutes ago)

VFR

(Visual Flight Rules)

WindVisibilityCloudsConditions
340° at 4 knots (7 kph)
10 km or more
  • Clear skies
  • No significant weather
TemperaturesReadingsPrecipitation
Current Temp14°C (57°F)
Dewpoint2°C (36°F)
Humidity44%
Altimeter30.06"Hg
Sea Level Pressure1018mb
Field Elevation4406.17'
None Recorded

Additional weather within a 185.2km radius of OICI

Location METAR
OICC

109.3km N (039°)

41 minutes ago
OICK

174.8km E (095°)

6 hours, 51 minutes ago
VFR VFR    MVFR MVFR    IFR IFR    LIFR LIFR    Unknown Unknown

Previous 24 hour Weather Graphs

  Loading...

CheckWX.com is intended as a tool to help pilots better visualize weather data.   It is not intended as a substitute for an official weather briefing obtained from a Flight Service Station.
CheckWX.com does not meet the FAA requirements for an official pre-flight weather briefing.   Therefore, it's important that pilots still call and obtain an official FSS pre-flight weather briefing.